Pembroke, Kentucky
Current Conditions -  °F | °C
As of 2:13 AM on Sunday 26 Oct 2014 (Local Time) from KHOP Reporting Station
Haze Haze  
Wind Chill: 55°   Ceiling: Unl
Heat Index: 55°   Visibility: 1.2mi
Dew Point: 55°   Wind: 2mph
Humidity: 100%   Direction: 240°WSW
Pressure: 30.01"   Gusts: NA
Location:  36.78°N, 87.36°W
Report Text: KHOP 260713Z AUTO 24002KT 1 1/4SM R23/3000FT BR CLR 13/13 A3001 RMK AO2 VIS 1/2V1 3/4
Loading
Personal Weather Stations






























Interactive Weather Map
Tropical Storm Tracking
New forecast layout! Learn more

10-Day Weather Forecast

Advertisements
Track Severe Weather on mobile